Time;durP1;ratioP1;P1;durP2;ratioP2;P2;SDS_P1;SDS_P2;PMS_P1;PMS_P2;Temp;Humidity;BMP_temperature;BMP_pressure;BME280_temperature;BME280_humidity;BME280_pressure;Samples;Min_cycle;Max_cycle;Signal;HPM_P1;HPM_P2
2023/07/30 00:00:41;;;;;;;22.60;16.80;;;;;;;18.19;100.00;99719.17;223120;1266;143056;-91
2023/07/30 00:05:41;;;;;;;22.40;15.40;;;;;;;18.22;100.00;99719.54;223665;1266;139326;-93
2023/07/30 00:10:41;;;;;;;21.80;18.50;;;;;;;18.26;100.00;99718.65;223126;1267;141130;-91
2023/07/30 00:15:42;;;;;;;20.10;16.60;;;;;;;18.27;100.00;99720.59;223672;1267;139285;-92
2023/07/30 00:20:45;;;;;;;24.30;16.90;;;;;;;18.27;100.00;99718.84;223079;1266;142419;-91
2023/07/30 00:25:45;;;;;;;21.50;15.50;;;;;;;18.27;100.00;99720.42;223759;1266;96023;-91
2023/07/30 00:30:46;;;;;;;19.10;14.60;;;;;;;18.27;100.00;99720.36;223166;1267;141376;-92
2023/07/30 00:35:47;;;;;;;19.40;14.10;;;;;;;18.28;100.00;99722.48;223672;1267;139621;-90
2023/07/30 00:40:47;;;;;;;18.10;12.60;;;;;;;18.27;100.00;99731.27;223144;1267;143347;-92
2023/07/30 00:45:48;;;;;;;17.90;12.60;;;;;;;18.25;100.00;99731.48;223636;1266;139216;-91
2023/07/30 00:50:49;;;;;;;15.90;10.50;;;;;;;18.23;100.00;99738.63;223128;1267;141644;-92
2023/07/30 00:55:49;;;;;;;13.50;10.30;;;;;;;18.20;100.00;99738.71;223735;1266;96442;-92
2023/07/30 01:00:52;;;;;;;19.50;11.80;;;;;;;18.17;100.00;99740.88;223199;1267;141325;-92
2023/07/30 01:05:53;;;;;;;15.30;10.70;;;;;;;18.12;100.00;99740.39;223666;1267;140322;-92
2023/07/30 01:10:54;;;;;;;13.90;10.20;;;;;;;18.08;100.00;99748.77;223125;1266;143886;-93
2023/07/30 01:15:55;;;;;;;15.60;11.00;;;;;;;18.05;100.00;99752.05;223674;1266;139781;-92
2023/07/30 01:20:59;;;;;;;16.10;11.70;;;;;;;18.01;100.00;99751.71;223161;1267;141304;-93
2023/07/30 01:26:08;;;;;;;18.70;11.80;;;;;;;17.95;100.00;99755.05;223774;1266;95944;-93
2023/07/30 01:31:12;;;;;;;15.90;12.30;;;;;;;17.90;100.00;99747.44;223101;1266;141035;-91
2023/07/30 01:36:15;;;;;;;18.80;11.60;;;;;;;17.84;100.00;99757.13;223693;1266;139097;-92
2023/07/30 01:41:16;;;;;;;23.40;14.60;;;;;;;17.81;100.00;99755.48;223056;1266;142234;-91
2023/07/30 01:46:16;;;;;;;18.50;14.50;;;;;;;17.77;100.00;99755.28;223727;1266;140193;-90
2023/07/30 01:51:17;;;;;;;19.10;14.50;;;;;;;17.74;100.00;99753.30;223184;1266;142324;-91
2023/07/30 01:56:17;;;;;;;19.30;13.90;;;;;;;17.71;100.00;99755.68;223800;1266;95900;-92
2023/07/30 02:01:18;;;;;;;16.90;14.60;;;;;;;17.68;100.00;99745.34;223114;1266;141161;-91
2023/07/30 02:06:18;;;;;;;24.10;17.50;;;;;;;17.67;100.00;99742.05;223670;1266;139336;-92
2023/07/30 02:11:18;;;;;;;21.50;15.80;;;;;;;17.66;100.00;99749.70;223221;1266;142312;-92
2023/07/30 02:16:19;;;;;;;25.20;17.60;;;;;;;17.66;100.00;99755.75;223704;1266;139322;-91
2023/07/30 02:21:19;;;;;;;24.50;16.70;;;;;;;17.65;100.00;99747.77;223200;1266;142579;-91
2023/07/30 02:26:20;;;;;;;25.20;18.90;;;;;;;17.63;100.00;99746.95;223813;1266;95863;-92
2023/07/30 02:31:21;;;;;;;21.50;17.80;;;;;;;17.61;100.00;99762.80;223134;1266;140956;-92
2023/07/30 02:36:21;;;;;;;22.90;18.80;;;;;;;17.59;100.00;99772.10;223696;1266;139626;-91
2023/07/30 02:41:21;;;;;;;25.50;16.70;;;;;;;17.55;100.00;99778.25;223184;1266;142118;-90
2023/07/30 02:46:22;;;;;;;23.50;18.20;;;;;;;17.48;100.00;99778.91;223692;1266;140396;-91
2023/07/30 02:51:22;;;;;;;30.20;19.00;;;;;;;17.43;100.00;99774.94;223178;1267;142420;-92
2023/07/30 02:56:23;;;;;;;26.00;19.00;;;;;;;17.41;100.00;99774.09;223838;1266;95970;-91
2023/07/30 03:01:23;;;;;;;26.50;19.70;;;;;;;17.41;100.00;99777.61;223147;1267;142324;-92
2023/07/30 03:06:24;;;;;;;27.20;21.40;;;;;;;17.38;100.00;99772.90;223699;1266;139976;-92
2023/07/30 03:11:24;;;;;;;32.10;21.00;;;;;;;17.37;100.00;99781.64;223168;1267;141850;-92
2023/07/30 03:16:25;;;;;;;26.70;20.70;;;;;;;17.37;100.00;99775.45;223689;1267;139236;-92
2023/07/30 03:21:25;;;;;;;31.40;20.20;;;;;;;17.34;100.00;99782.11;223124;1267;142992;-93
2023/07/30 03:26:25;;;;;;;27.50;20.10;;;;;;;17.33;100.00;99789.23;223760;1266;96036;-91
2023/07/30 03:31:28;;;;;;;27.30;19.60;;;;;;;17.30;100.00;99788.20;223140;1266;141550;-93
2023/07/30 03:36:28;;;;;;;29.20;18.70;;;;;;;17.28;100.00;99787.22;223699;1267;139737;-91
2023/07/30 03:41:29;;;;;;;25.00;17.70;;;;;;;17.27;100.00;99787.02;223087;1267;141194;-92
2023/07/30 03:46:29;;;;;;;22.90;17.20;;;;;;;17.25;100.00;99790.16;223615;1267;140034;-92
2023/07/30 03:51:31;;;;;;;23.60;16.90;;;;;;;17.21;100.00;99789.05;223159;1266;141841;-93
2023/07/30 03:56:32;;;;;;;19.60;15.60;;;;;;;17.20;100.00;99790.77;223740;1267;95922;-91
2023/07/30 04:01:33;;;;;;;25.80;17.80;;;;;;;17.20;100.00;99796.01;223189;1267;140853;-92
2023/07/30 04:06:34;;;;;;;23.20;17.00;;;;;;;17.21;100.00;99809.58;223717;1267;139450;-89
2023/07/30 04:11:34;;;;;;;26.10;17.10;;;;;;;17.21;100.00;99814.65;223087;1267;140806;-92
2023/07/30 04:16:35;;;;;;;22.70;16.20;;;;;;;17.22;100.00;99813.59;223712;1266;139356;-93
2023/07/30 04:21:35;;;;;;;21.50;15.70;;;;;;;17.26;100.00;99815.64;223174;1266;140709;-94
2023/07/30 04:26:36;;;;;;;23.70;14.60;;;;;;;17.32;100.00;99814.86;223817;1267;95790;-92
2023/07/30 04:31:36;;;;;;;20.50;16.10;;;;;;;17.38;100.00;99813.81;223154;1268;141286;-92
2023/07/30 04:36:36;;;;;;;21.50;15.80;;;;;;;17.44;100.00;99829.18;223740;1266;140058;-93
2023/07/30 04:41:37;;;;;;;23.00;17.70;;;;;;;17.50;100.00;99835.21;223150;1267;142469;-93
2023/07/30 04:46:37;;;;;;;24.10;18.10;;;;;;;17.54;100.00;99840.90;223705;1266;139424;-91
2023/07/30 04:51:38;;;;;;;26.00;18.00;;;;;;;17.57;100.00;99844.50;223079;1266;142115;-91
2023/07/30 04:56:38;;;;;;;23.50;16.40;;;;;;;17.59;100.00;99849.84;223839;1266;96195;-93
2023/07/30 05:01:39;;;;;;;24.40;18.70;;;;;;;17.62;100.00;99852.55;223218;1266;142280;-89
2023/07/30 05:06:39;;;;;;;21.70;16.70;;;;;;;17.64;100.00;99857.91;223737;1267;139653;-89
2023/07/30 05:11:40;;;;;;;24.80;16.50;;;;;;;17.61;100.00;99858.86;223197;1267;141297;-88
2023/07/30 05:16:40;;;;;;;24.40;16.90;;;;;;;17.57;100.00;99862.63;223765;1266;140259;-90
2023/07/30 05:21:40;;;;;;;23.20;16.80;;;;;;;17.61;100.00;99870.61;223142;1267;143052;-89
2023/07/30 05:26:41;;;;;;;26.40;18.60;;;;;;;17.70;100.00;99871.73;223725;1267;140131;-86
2023/07/30 05:31:41;;;;;;;29.10;19.60;;;;;;;17.73;100.00;99870.38;223308;1266;140745;-89
2023/07/30 05:36:42;;;;;;;25.60;18.00;;;;;;;17.79;100.00;99872.23;223691;1266;139616;-89
2023/07/30 05:41:42;;;;;;;27.50;18.90;;;;;;;17.85;100.00;99872.27;223146;1267;142032;-88
2023/07/30 05:46:43;;;;;;;24.70;17.10;;;;;;;17.95;100.00;99881.08;223711;1267;139948;-89
2023/07/30 05:51:43;;;;;;;27.80;18.70;;;;;;;18.12;100.00;99888.14;223148;1267;141445;-88
2023/07/30 05:56:43;;;;;;;26.40;17.90;;;;;;;18.27;100.00;99886.52;223725;1267;139933;-89
2023/07/30 06:01:44;;;;;;;29.40;18.80;;;;;;;18.44;100.00;99875.23;223244;1266;141084;-88
2023/07/30 06:06:44;;;;;;;25.90;19.00;;;;;;;18.57;100.00;99872.11;223727;1268;139943;-89
2023/07/30 06:11:45;;;;;;;30.50;23.40;;;;;;;18.73;100.00;99869.26;223129;1266;141741;-89
2023/07/30 06:16:45;;;;;;;31.60;22.70;;;;;;;18.83;100.00;99861.94;223729;1267;139946;-90
2023/07/30 06:21:46;;;;;;;30.20;22.70;;;;;;;18.93;100.00;99861.84;223082;1267;142466;-89
2023/07/30 06:26:47;;;;;;;29.30;22.80;;;;;;;19.05;100.00;99865.35;223748;1267;141434;-89
2023/07/30 06:31:47;;;;;;;32.30;24.40;;;;;;;19.21;100.00;99865.73;223303;1267;140830;-89
2023/07/30 06:36:48;;;;;;;33.10;24.70;;;;;;;19.46;100.00;99864.48;223734;1267;139664;-89
2023/07/30 06:41:48;;;;;;;34.60;26.40;;;;;;;19.63;100.00;99873.27;223166;1267;145167;-92
2023/07/30 06:46:48;;;;;;;31.50;24.60;;;;;;;19.81;100.00;99871.71;223684;1266;141118;-91
2023/07/30 06:51:49;;;;;;;27.80;20.50;;;;;;;19.97;100.00;99875.63;223103;1267;141868;-92
2023/07/30 06:56:49;;;;;;;26.80;20.30;;;;;;;20.27;100.00;99882.77;223718;1267;140533;-92
2023/07/30 07:01:50;;;;;;;29.80;20.60;;;;;;;20.68;100.00;99878.48;223148;1267;141825;-92
2023/07/30 07:06:50;;;;;;;24.00;18.30;;;;;;;21.09;100.00;99874.33;223718;1267;139767;-93
2023/07/30 07:11:51;;;;;;;23.10;16.80;;;;;;;21.41;100.00;99880.61;223156;1266;142923;-91
2023/07/30 07:16:53;;;;;;;21.60;15.90;;;;;;;21.61;100.00;99890.73;223697;1268;139732;-91
2023/07/30 07:21:54;;;;;;;20.90;14.20;;;;;;;21.71;100.00;99884.52;223166;1267;143001;-92
2023/07/30 07:26:54;;;;;;;21.00;15.20;;;;;;;21.85;100.00;99883.04;223705;1267;139419;-92
2023/07/30 07:31:55;;;;;;;18.80;14.40;;;;;;;22.02;100.00;99888.39;223310;1266;141504;-92
2023/07/30 07:36:55;;;;;;;16.60;12.60;;;;;;;22.03;100.00;99891.17;223719;1267;139409;-92
2023/07/30 07:41:56;;;;;;;16.30;12.60;;;;;;;21.96;100.00;99892.15;223144;1266;140692;-92
2023/07/30 07:46:56;;;;;;;15.00;9.60;;;;;;;22.16;100.00;99896.64;223738;1267;139330;-92
2023/07/30 07:51:57;;;;;;;15.70;11.00;;;;;;;22.22;100.00;99907.61;223197;1266;141520;-87
2023/07/30 07:56:58;;;;;;;12.80;7.10;;;;;;;22.22;100.00;99904.37;223706;1266;139250;-91
2023/07/30 08:01:58;;;;;;;10.80;6.50;;;;;;;22.28;100.00;99906.98;223304;1267;141502;-91
2023/07/30 08:07:03;;;;;;;13.70;9.40;;;;;;;22.49;100.00;99901.08;223700;1267;139487;-86
2023/07/30 08:12:04;;;;;;;10.30;6.80;;;;;;;22.62;99.98;99902.26;223139;1267;141589;-91
2023/07/30 08:17:04;;;;;;;11.40;6.30;;;;;;;22.78;97.75;99897.50;223670;1270;139383;-91
2023/07/30 08:22:05;;;;;;;9.90;5.90;;;;;;;23.20;99.76;99897.62;223178;1268;142046;-90
2023/07/30 08:27:05;;;;;;;7.80;5.10;;;;;;;23.75;97.13;99909.81;223703;1267;139315;-90
2023/07/30 08:32:06;;;;;;;11.70;7.00;;;;;;;24.28;94.98;99907.35;223277;1266;140881;-86
2023/07/30 08:37:06;;;;;;;14.00;7.00;;;;;;;24.64;89.27;99916.75;223673;1268;139525;-87
2023/07/30 08:42:07;;;;;;;9.40;6.20;;;;;;;24.83;88.37;99916.16;223154;1270;140938;-88
2023/07/30 08:47:08;;;;;;;9.80;6.00;;;;;;;25.29;88.45;99914.50;223729;1268;139438;-87
2023/07/30 08:52:10;;;;;;;9.10;5.10;;;;;;;25.68;85.11;99912.98;223144;1267;141729;-84
2023/07/30 08:57:12;;;;;;;9.60;5.50;;;;;;;25.86;82.42;99914.52;223643;1266;139442;-89
2023/07/30 09:02:19;;;;;;;8.50;4.60;;;;;;;26.19;82.62;99914.95;223295;1267;143539;-90
2023/07/30 09:07:19;;;;;;;8.20;4.40;;;;;;;26.55;83.16;99912.94;223656;1268;138472;-87
2023/07/30 09:12:26;;;;;;;7.30;3.70;;;;;;;26.92;78.08;99906.83;223164;1267;142967;-89
2023/07/30 09:17:26;;;;;;;7.50;3.50;;;;;;;26.79;72.77;99906.82;223609;1268;138685;-87
2023/07/30 09:22:28;;;;;;;8.80;4.10;;;;;;;26.70;72.40;99905.98;223182;1267;139517;-88
2023/07/30 09:27:29;;;;;;;5.60;3.40;;;;;;;26.64;72.96;99909.81;223632;1268;138496;-90
2023/07/30 09:32:32;;;;;;;8.80;4.80;;;;;;;26.90;72.74;99903.64;223201;1267;139876;-85
2023/07/30 09:37:37;;;;;;;7.20;3.60;;;;;;;26.99;71.72;99900.83;223563;1269;137913;-86
2023/07/30 09:42:40;;;;;;;;;;;;;;;26.90;68.46;99901.43;222894;1267;324360;-86
2023/07/30 09:47:48;;;;;;;6.70;3.20;;;;;;;27.12;70.25;99901.48;223778;1268;125416;-90
2023/07/30 09:52:49;;;;;;;9.20;3.60;;;;;;;27.54;69.97;99903.20;223147;1271;139953;-91
2023/07/30 09:57:49;;;;;;;8.70;3.60;;;;;;;27.88;70.04;99909.73;223710;1268;138712;-91
2023/07/30 10:02:52;;;;;;;5.60;3.60;;;;;;;28.30;68.02;99909.73;223143;1266;140320;-86
2023/07/30 10:08:22;;;;;;;8.30;3.90;;;;;;;28.39;64.16;99911.63;223858;1267;95919;-88
2023/07/30 10:13:23;;;;;;;6.70;3.60;;;;;;;28.32;64.55;99907.98;223089;1266;139902;-89
2023/07/30 10:18:33;;;;;;;7.20;4.00;;;;;;;28.38;64.65;99905.29;223733;1267;137771;-87
2023/07/30 10:23:34;;;;;;;7.90;3.60;;;;;;;28.52;63.36;99907.08;223138;1267;139481;-86
2023/07/30 10:28:37;;;;;;;6.00;3.50;;;;;;;28.53;62.04;99907.15;223734;1267;138110;-90
2023/07/30 10:33:45;;;;;;;7.20;3.20;;;;;;;28.57;64.62;99902.25;223183;1266;140334;-91
2023/07/30 10:38:47;;;;;;;4.70;2.90;;;;;;;28.90;63.14;99898.73;223635;1267;138072;-85
2023/07/30 10:43:51;;;;;;;9.60;5.00;;;;;;;29.24;60.90;99897.77;223307;1266;140221;-90
2023/07/30 10:48:51;;;;;;;6.50;2.80;;;;;;;29.19;58.49;99901.42;223665;1268;138509;-87
2023/07/30 10:53:52;;;;;;;7.20;3.00;;;;;;;29.05;59.06;99897.30;223207;1271;139447;-87
2023/07/30 10:58:53;;;;;;;8.20;2.80;;;;;;;29.36;59.18;99887.27;223723;1267;138127;-87
2023/07/30 11:03:54;;;;;;;5.00;3.00;;;;;;;29.70;57.76;99886.29;223188;1267;139974;-86
2023/07/30 11:08:55;;;;;;;6.10;3.00;;;;;;;30.08;57.25;99889.09;223688;1266;139089;-87
2023/07/30 11:13:56;;;;;;;6.80;3.10;;;;;;;30.08;56.44;99883.92;223311;1266;139924;-88
2023/07/30 11:18:57;;;;;;;5.20;3.00;;;;;;;30.07;54.36;99879.23;223156;1271;140979;-87
2023/07/30 11:23:57;;;;;;;5.90;3.00;;;;;;;29.85;55.39;99875.00;223711;1267;138742;-87
2023/07/30 11:28:58;;;;;;;4.80;2.80;;;;;;;29.93;55.60;99869.38;223220;1267;140927;-87
2023/07/30 11:33:58;;;;;;;5.90;3.10;;;;;;;30.27;56.56;99864.59;223718;1267;139088;-91
2023/07/30 11:38:59;;;;;;;4.20;2.30;;;;;;;30.63;55.08;99857.84;223147;1267;140567;-88
2023/07/30 11:44:00;;;;;;;4.00;2.50;;;;;;;30.51;53.47;99859.37;223835;1267;95867;-91
2023/07/30 11:49:15;;;;;;;4.70;2.80;;;;;;;30.57;53.63;99859.02;223187;1267;163506;-87
2023/07/30 11:54:21;;;;;;;4.40;2.60;;;;;;;30.95;53.32;99857.13;223645;1266;138676;-89
2023/07/30 11:59:21;;;;;;;9.10;2.70;;;;;;;31.33;52.71;99856.73;223133;1266;140906;-89
2023/07/30 12:04:24;;;;;;;4.20;2.40;;;;;;;31.13;50.23;99854.70;223737;1267;138674;-90
2023/07/30 12:09:30;;;;;;;4.00;2.10;;;;;;;30.81;51.09;99847.13;223160;1268;140502;-89
2023/07/30 12:14:57;;;;;;;4.10;2.20;;;;;;;31.13;52.74;99842.14;223750;1268;108907;-89
2023/07/30 12:20:00;;;;;;;7.20;2.50;;;;;;;31.56;53.30;99835.14;223221;1270;140310;-92
2023/07/30 12:25:03;;;;;;;4.20;2.20;;;;;;;31.89;52.08;99825.09;223711;1266;138583;-87
2023/07/30 12:30:04;;;;;;;3.40;1.90;;;;;;;31.80;49.39;99816.61;223046;1270;140223;-88
2023/07/30 12:35:04;;;;;;;3.80;2.20;;;;;;;31.33;49.65;99812.27;223695;1267;138430;-89
2023/07/30 12:40:06;;;;;;;5.40;2.10;;;;;;;31.08;50.86;99804.81;223182;1267;139804;-88
2023/07/30 12:45:07;;;;;;;5.00;2.20;;;;;;;30.83;53.52;99798.19;223711;1267;138712;-89
2023/07/30 12:50:08;;;;;;;4.10;2.00;;;;;;;30.96;51.99;99793.31;223301;1267;139963;-91
2023/07/30 12:55:08;;;;;;;3.30;1.90;;;;;;;30.75;52.87;99777.14;223688;1267;138580;-88
2023/07/30 13:00:09;;;;;;;3.70;1.80;;;;;;;30.84;50.98;99774.61;223155;1267;140075;-90
2023/07/30 13:05:10;;;;;;;2.50;1.80;;;;;;;30.80;52.43;99769.13;223709;1270;138659;-91
2023/07/30 13:10:11;;;;;;;5.70;2.00;;;;;;;30.98;52.71;99763.52;223205;1267;139895;-89
2023/07/30 13:15:11;;;;;;;4.00;1.90;;;;;;;31.11;50.17;99756.75;223666;1266;228823;-90
2023/07/30 13:20:12;;;;;;;4.00;1.70;;;;;;;31.07;49.38;99763.27;223292;1267;139625;-90
2023/07/30 13:25:12;;;;;;;2.90;2.00;;;;;;;30.93;49.05;99769.00;223692;1268;138760;-90
2023/07/30 13:30:12;;;;;;;3.40;1.80;;;;;;;30.71;50.88;99768.52;223135;1268;140424;-91
2023/07/30 13:35:13;;;;;;;3.10;1.80;;;;;;;30.69;52.87;99763.96;223634;1267;139180;-91
2023/07/30 13:40:13;;;;;;;2.90;1.60;;;;;;;30.65;51.65;99757.89;223138;1267;140381;-89
2023/07/30 13:45:14;;;;;;;10.10;1.90;;;;;;;30.53;52.28;99751.48;223737;1268;139072;-90
2023/07/30 13:50:14;;;;;;;7.00;2.00;;;;;;;30.25;50.75;99745.84;223260;1267;141831;-87
2023/07/30 13:55:16;;;;;;;3.40;1.70;;;;;;;29.86;50.11;99734.61;223690;1267;138909;-88
2023/07/30 14:00:17;;;;;;;4.30;2.00;;;;;;;29.65;50.74;99738.66;223188;1267;140557;-90
2023/07/30 14:05:18;;;;;;;3.00;1.80;;;;;;;29.44;52.02;99744.16;223681;1267;138709;-90
2023/07/30 14:10:18;;;;;;;3.50;1.50;;;;;;;29.38;52.45;99748.81;223186;1267;140244;-90
2023/07/30 14:15:19;;;;;;;2.50;1.50;;;;;;;29.42;53.95;99744.11;223703;1267;140221;-92
2023/07/30 14:20:19;;;;;;;3.60;2.00;;;;;;;29.44;54.12;99733.43;223283;1267;140549;-91
2023/07/30 14:25:20;;;;;;;2.80;1.80;;;;;;;29.52;54.10;99735.88;223693;1267;139094;-91
2023/07/30 14:30:20;;;;;;;2.50;1.70;;;;;;;29.51;53.26;99736.29;223150;1267;140204;-91
2023/07/30 14:35:21;;;;;;;2.50;1.70;;;;;;;29.54;53.13;99738.86;223738;1267;138639;-90
2023/07/30 14:40:21;;;;;;;3.40;1.90;;;;;;;29.61;49.74;99740.13;223185;1266;139495;-90
2023/07/30 14:45:22;;;;;;;4.10;1.90;;;;;;;29.41;49.62;99744.38;223659;1267;138739;-87
2023/07/30 14:50:23;;;;;;;3.70;2.40;;;;;;;29.27;51.40;99734.43;223327;1267;140136;-90
2023/07/30 14:55:23;;;;;;;3.80;1.90;;;;;;;29.24;51.16;99734.20;223616;1267;138406;-92
2023/07/30 15:00:26;;;;;;;5.20;2.10;;;;;;;28.99;49.72;99745.70;223158;1266;140026;-90
2023/07/30 15:05:26;;;;;;;5.00;2.10;;;;;;;28.56;50.51;99752.38;223723;1267;138786;-88
2023/07/30 15:10:27;;;;;;;3.60;1.90;;;;;;;27.84;53.21;99755.83;223166;1267;140607;-87
2023/07/30 15:15:27;;;;;;;3.30;1.80;;;;;;;27.37;54.93;99757.88;223581;1266;138885;-87
2023/07/30 15:20:28;;;;;;;4.40;2.60;;;;;;;26.96;56.56;99761.60;223287;1266;141206;-89
2023/07/30 15:25:28;;;;;;;8.10;2.20;;;;;;;26.67;58.11;99759.36;223653;1267;138466;-87
2023/07/30 15:30:29;;;;;;;3.70;1.70;;;;;;;26.55;58.60;99754.33;223107;1267;140429;-88
2023/07/30 15:35:31;;;;;;;3.90;2.00;;;;;;;26.40;57.51;99751.02;223647;1267;138655;-86
2023/07/30 15:40:31;;;;;;;3.90;2.00;;;;;;;26.39;55.53;99751.76;223070;1266;141481;-88
2023/07/30 15:45:35;;;;;;;4.90;2.00;;;;;;;26.43;53.91;99747.23;223715;1267;138519;-89
2023/07/30 15:50:36;;;;;;;3.30;1.90;;;;;;;26.40;53.94;99745.36;223205;1267;140248;-88
2023/07/30 15:55:36;;;;;;;4.40;2.40;;;;;;;26.38;54.09;99747.51;223706;1266;138627;-88
2023/07/30 16:00:37;;;;;;;4.10;2.30;;;;;;;26.37;55.45;99750.32;223094;1267;139554;-87
2023/07/30 16:05:37;;;;;;;4.20;2.30;;;;;;;26.35;55.24;99755.16;223703;1267;138739;-88
2023/07/30 16:10:38;;;;;;;7.20;2.60;;;;;;;26.30;56.09;99762.05;223138;1267;140275;-88
2023/07/30 16:15:38;;;;;;;4.00;2.50;;;;;;;26.22;55.52;99758.04;223638;1266;138778;-87
2023/07/30 16:20:39;;;;;;;4.30;2.60;;;;;;;26.07;56.12;99761.32;223289;1266;140433;-88
2023/07/30 16:25:39;;;;;;;7.30;2.80;;;;;;;25.97;57.01;99764.20;223642;1266;138370;-87
2023/07/30 16:30:40;;;;;;;5.70;2.70;;;;;;;25.92;58.49;99759.36;223173;1266;140620;-88
2023/07/30 16:35:40;;;;;;;5.70;2.60;;;;;;;25.89;58.39;99760.65;223626;1266;138634;-86
2023/07/30 16:40:41;;;;;;;6.70;2.80;;;;;;;25.91;58.58;99768.70;223116;1267;141481;-88
2023/07/30 16:45:41;;;;;;;4.80;2.80;;;;;;;25.83;59.20;99765.41;223683;1266;139046;-89
2023/07/30 16:50:48;;;;;;;5.40;2.80;;;;;;;25.75;58.71;99772.60;223290;1266;140417;-89
2023/07/30 16:55:48;;;;;;;4.30;2.70;;;;;;;25.62;58.73;99778.86;223749;1266;95941;-88
2023/07/30 17:00:58;;;;;;;5.50;2.90;;;;;;;25.50;59.17;99785.02;223165;1267;139540;-90
2023/07/30 17:06:01;;;;;;;5.90;3.00;;;;;;;25.43;59.71;99793.84;223658;1267;138731;-87
2023/07/30 17:11:04;;;;;;;5.00;2.70;;;;;;;25.32;59.26;99811.21;223165;1266;139737;-91
2023/07/30 17:16:09;;;;;;;6.00;2.70;;;;;;;25.22;59.27;99808.69;223661;1266;138163;-90
2023/07/30 17:21:10;;;;;;;4.30;2.60;;;;;;;25.16;58.82;99811.52;223180;1266;139941;-90
2023/07/30 17:26:11;;;;;;;8.40;3.10;;;;;;;25.11;59.06;99810.79;223772;1267;105544;-90
2023/07/30 17:31:12;;;;;;;7.50;2.50;;;;;;;25.04;58.28;99816.06;223174;1266;140489;-88
2023/07/30 17:36:13;;;;;;;5.10;2.50;;;;;;;24.94;57.71;99827.36;223660;1266;137964;-88
2023/07/30 17:41:14;;;;;;;6.20;2.80;;;;;;;24.82;58.10;99828.58;223176;1266;140606;-90
2023/07/30 17:46:18;;;;;;;4.10;2.30;;;;;;;24.67;56.74;99830.64;223700;1267;138130;-89
2023/07/30 17:51:18;;;;;;;4.70;2.30;;;;;;;24.55;57.55;99834.00;223220;1266;141249;-88
2023/07/30 17:56:18;;;;;;;5.30;2.10;;;;;;;24.43;57.91;99836.95;223787;1266;106101;-88
2023/07/30 18:01:20;;;;;;;6.20;2.70;;;;;;;24.30;57.96;99838.55;223125;1266;139799;-89
2023/07/30 18:06:21;;;;;;;5.50;2.60;;;;;;;24.12;58.26;99842.36;223649;1267;138059;-89
2023/07/30 18:11:22;;;;;;;5.40;2.80;;;;;;;24.00;59.14;99845.86;223152;1267;140225;-89
2023/07/30 18:16:22;;;;;;;5.60;2.60;;;;;;;23.86;59.28;99846.34;223759;1266;138740;-89
2023/07/30 18:21:22;;;;;;;6.50;3.20;;;;;;;23.66;59.97;99849.27;223169;1266;140704;-89
2023/07/30 18:26:23;;;;;;;7.80;2.60;;;;;;;23.50;60.27;99843.24;223828;1266;95688;-88
2023/07/30 18:31:23;;;;;;;5.60;2.60;;;;;;;23.36;61.14;99843.41;223100;1267;141367;-88
2023/07/30 18:36:24;;;;;;;6.20;3.60;;;;;;;23.25;61.81;99847.73;223674;1266;138333;-88
2023/07/30 18:41:24;;;;;;;9.20;3.80;;;;;;;23.10;62.37;99862.97;223154;1267;141470;-88
2023/07/30 18:46:25;;;;;;;6.60;3.30;;;;;;;22.95;62.82;99866.99;223752;1267;138494;-88
2023/07/30 18:51:25;;;;;;;5.60;3.00;;;;;;;22.75;63.03;99871.31;223171;1266;141091;-88
2023/07/30 18:56:26;;;;;;;7.90;3.20;;;;;;;22.60;63.21;99881.49;223810;1266;96119;-88
2023/07/30 19:01:27;;;;;;;5.60;2.90;;;;;;;22.46;63.02;99886.97;223174;1266;139847;-89
2023/07/30 19:06:28;;;;;;;6.40;3.00;;;;;;;22.20;63.54;99879.23;223695;1266;138469;-87
2023/07/30 19:11:28;;;;;;;6.50;3.80;;;;;;;21.99;64.52;99885.31;223220;1266;139692;-88
2023/07/30 19:16:29;;;;;;;7.50;3.80;;;;;;;21.84;65.27;99891.90;223673;1266;138417;-89
2023/07/30 19:21:29;;;;;;;6.80;3.60;;;;;;;21.67;66.03;99893.10;223207;1267;139999;-87
2023/07/30 19:26:30;;;;;;;8.20;4.50;;;;;;;21.53;66.52;99898.02;223841;1267;96046;-88
2023/07/30 19:31:30;;;;;;;5.50;2.80;;;;;;;21.35;67.28;99900.52;223167;1266;139224;-88
2023/07/30 19:36:31;;;;;;;7.90;3.90;;;;;;;21.22;68.40;99908.38;223663;1266;138227;-88
2023/07/30 19:41:32;;;;;;;6.80;3.60;;;;;;;21.11;69.20;99906.86;223206;1267;140371;-88
2023/07/30 19:46:32;;;;;;;6.40;3.80;;;;;;;20.96;70.02;99912.98;223709;1267;138227;-87
2023/07/30 19:51:33;;;;;;;7.40;3.80;;;;;;;20.83;70.76;99909.96;223216;1267;140371;-88
2023/07/30 19:56:34;;;;;;;7.50;3.60;;;;;;;20.72;71.54;99913.33;223762;1267;108919;-88
2023/07/30 20:01:34;;;;;;;8.40;3.50;;;;;;;20.61;72.47;99917.58;223196;1266;140664;-88
2023/07/30 20:06:35;;;;;;;8.10;4.00;;;;;;;20.52;73.18;99914.82;223712;1266;137775;-88
2023/07/30 20:11:36;;;;;;;10.00;3.70;;;;;;;20.41;74.88;99916.77;223207;1266;141376;-88
2023/07/30 20:16:36;;;;;;;7.50;3.80;;;;;;;20.33;76.00;99915.52;223720;1266;139067;-88
2023/07/30 20:21:37;;;;;;;7.50;3.60;;;;;;;20.26;76.14;99918.10;223198;1267;141716;-88
2023/07/30 20:26:38;;;;;;;8.00;3.80;;;;;;;20.21;76.68;99921.17;223803;1267;95935;-88
2023/07/30 20:31:38;;;;;;;7.30;3.30;;;;;;;20.14;77.20;99929.09;223158;1267;140269;-89
